createdAt,value
2023-05-09T06:47:24.613Z,11.23
2023-05-09T06:49:52.459Z,13.95
2023-05-09T06:52:21.534Z,11.75
2023-05-09T06:54:49.382Z,10.98
2023-05-09T06:57:17.306Z,9.10
2023-05-09T06:59:46.008Z,8.57
2023-05-09T07:02:13.913Z,10.10
2023-05-09T07:04:48.563Z,11.05
2023-05-09T07:07:17.409Z,10.60
2023-05-09T07:09:48.075Z,9.05
2023-05-09T07:12:17.226Z,13.20
2023-05-09T07:15:00.322Z,11.07
2023-05-09T07:17:30.681Z,8.70
2023-05-09T07:20:07.562Z,9.80
2023-05-09T07:22:37.319Z,12.63
2023-05-09T07:25:07.822Z,10.13
2023-05-09T07:27:35.906Z,9.70
2023-05-09T07:30:04.268Z,10.70
2023-05-09T07:32:32.283Z,10.93
2023-05-09T07:35:01.656Z,10.95
2023-05-09T07:37:29.723Z,10.52
2023-05-09T07:39:58.044Z,10.40
2023-05-09T07:42:26.502Z,11.77
2023-05-09T07:44:55.081Z,9.57
2023-05-09T07:47:28.428Z,10.40
2023-05-09T07:49:56.403Z,11.30
2023-05-09T07:52:26.000Z,9.55
2023-05-09T07:54:54.641Z,11.43
2023-05-09T07:57:22.850Z,10.88
2023-05-09T07:59:51.324Z,12.70
2023-05-09T08:02:19.278Z,10.52
2023-05-09T08:04:48.836Z,10.50
2023-05-09T08:07:17.165Z,17.65
2023-05-09T08:09:46.818Z,10.13
2023-05-09T08:12:15.831Z,11.90
2023-05-09T08:14:44.006Z,12.80
2023-05-09T08:17:12.443Z,10.15
2023-05-09T08:19:41.502Z,11.00
2023-05-09T08:22:09.982Z,10.55
2023-05-09T08:24:38.008Z,11.45
2023-05-09T08:27:07.363Z,13.45
2023-05-09T08:29:35.186Z,16.52
2023-05-09T08:32:03.046Z,11.23
2023-05-09T08:34:34.375Z,16.08
2023-05-09T08:37:02.214Z,12.00
2023-05-09T08:39:30.184Z,11.27
2023-05-09T08:42:00.806Z,10.95
2023-05-09T08:44:32.416Z,11.57
2023-05-09T08:47:02.589Z,13.60
2023-05-09T08:49:31.469Z,11.85
2023-05-09T08:52:00.186Z,13.30
2023-05-09T08:54:28.989Z,15.98
2023-05-09T08:56:58.140Z,12.52
2023-05-09T08:59:28.499Z,12.27
2023-05-09T09:01:59.308Z,15.65
2023-05-09T09:04:27.192Z,17.08
2023-05-09T09:06:55.536Z,14.45
2023-05-09T09:09:25.070Z,16.70
2023-05-09T09:11:55.613Z,36.33
2023-05-09T09:14:28.729Z,18.08
2023-05-09T09:16:59.746Z,15.98
2023-05-09T09:19:31.849Z,14.55
2023-05-09T09:22:02.089Z,12.35
2023-05-09T09:27:14.172Z,15.25
2023-05-09T09:29:42.258Z,14.27
2023-05-09T09:32:35.120Z,12.77
2023-05-09T09:35:07.033Z,11.68
2023-05-09T09:37:36.616Z,13.75
2023-05-09T09:40:06.863Z,13.80
2023-05-09T09:42:43.047Z,15.40
2023-05-09T09:45:12.808Z,16.45
2023-05-09T09:47:43.733Z,13.52
2023-05-09T09:50:13.463Z,13.57
2023-05-09T09:52:44.747Z,12.48
2023-05-09T09:55:24.271Z,13.77
2023-05-09T09:57:55.891Z,12.77
2023-05-09T10:00:33.372Z,13.25
2023-05-09T10:03:04.652Z,11.63
2023-05-09T10:05:34.397Z,14.10
2023-05-09T10:08:07.661Z,15.00
2023-05-09T10:10:38.051Z,14.43
2023-05-09T10:14:05.981Z,14.38
2023-05-09T10:16:50.398Z,14.70
2023-05-09T10:19:23.876Z,14.57
2023-05-09T10:21:54.687Z,18.17
2023-05-09T10:24:29.706Z,17.33
2023-05-09T10:27:04.139Z,16.27
2023-05-09T10:29:36.846Z,18.02
2023-05-09T10:32:13.478Z,18.23
2023-05-09T10:34:45.036Z,17.02
2023-05-09T10:37:13.682Z,18.58
2023-05-09T10:39:42.868Z,19.40
2023-05-09T10:42:11.450Z,18.42
2023-05-09T10:44:39.914Z,15.85
2023-05-09T10:47:08.498Z,14.10
2023-05-09T10:49:37.360Z,21.15
2023-05-09T10:52:07.283Z,15.27
2023-05-09T10:54:37.944Z,15.18
2023-05-09T10:57:10.027Z,17.55
2023-05-09T11:02:13.877Z,14.40
2023-05-09T11:04:44.385Z,16.73
2023-05-09T11:07:26.322Z,16.70
2023-05-09T11:10:07.970Z,19.95
2023-05-09T11:12:36.555Z,15.30
2023-05-09T11:15:09.722Z,16.20
2023-05-09T11:17:39.745Z,14.43
2023-05-09T11:20:18.420Z,16.15
2023-05-09T11:22:48.397Z,17.40
2023-05-09T11:25:17.101Z,18.52
2023-05-09T11:27:48.581Z,16.40
2023-05-09T11:30:18.402Z,16.77
2023-05-09T11:32:48.042Z,20.83
2023-05-09T11:35:18.084Z,23.83
2023-05-09T11:37:49.353Z,16.70
2023-05-09T11:40:18.724Z,17.92
2023-05-09T11:42:48.047Z,23.83
2023-05-09T11:45:16.762Z,22.08
2023-05-09T11:47:47.050Z,21.23
2023-05-09T11:50:17.209Z,17.90
2023-05-09T11:52:45.303Z,21.55
2023-05-09T11:55:16.379Z,20.63
2023-05-09T11:57:46.175Z,15.93
2023-05-09T12:00:17.067Z,17.98
2023-05-09T12:02:46.598Z,19.90
2023-05-09T12:05:16.364Z,17.10
2023-05-09T12:07:44.839Z,19.73
2023-05-09T12:10:38.263Z,17.95
2023-05-09T12:13:06.247Z,17.35
2023-05-09T12:15:38.739Z,16.05
2023-05-09T12:18:08.552Z,14.65
2023-05-09T12:20:48.490Z,16.80
2023-05-09T12:23:16.913Z,17.40
2023-05-09T12:25:54.915Z,16.58
2023-05-09T12:28:24.322Z,15.20
2023-05-09T12:30:52.716Z,15.40
2023-05-09T12:33:21.509Z,16.73
2023-05-09T12:35:50.872Z,15.18
2023-05-09T12:38:23.292Z,20.60
2023-05-09T12:41:03.667Z,16.20
2023-05-09T12:43:43.664Z,17.05
2023-05-09T12:46:11.556Z,14.52
2023-05-09T12:48:40.165Z,16.90
2023-05-09T12:51:09.391Z,15.85
2023-05-09T12:53:42.715Z,20.67
2023-05-09T12:56:16.357Z,16.65
2023-05-09T12:58:50.405Z,15.88
2023-05-09T13:01:18.851Z,23.90
2023-05-09T13:03:53.054Z,18.08
2023-05-09T13:06:21.187Z,15.35
2023-05-09T13:09:00.288Z,15.85
2023-05-09T13:11:30.239Z,13.05
2023-05-09T13:13:58.599Z,17.27
2023-05-09T13:16:26.898Z,14.27
2023-05-09T13:18:54.810Z,13.82
2023-05-09T13:21:22.648Z,13.50
2023-05-09T13:23:53.052Z,13.18
2023-05-09T13:26:21.092Z,14.85
2023-05-09T13:28:50.630Z,12.50
2023-05-09T13:31:19.652Z,16.58
2023-05-09T13:33:49.323Z,12.75
2023-05-09T13:36:19.403Z,12.00
2023-05-09T13:38:47.277Z,11.30
2023-05-09T13:41:19.868Z,12.10
2023-05-09T13:43:47.972Z,12.77
2023-05-09T13:46:17.366Z,13.00
2023-05-09T13:48:45.656Z,11.75
2023-05-09T13:51:13.945Z,11.57
2023-05-09T13:53:41.829Z,10.98
2023-05-09T13:56:10.288Z,13.73
2023-05-09T13:58:38.581Z,14.25
2023-05-09T14:01:07.309Z,11.27
2023-05-09T14:03:36.832Z,11.20
2023-05-09T14:06:05.318Z,11.73
2023-05-09T14:08:50.657Z,11.25
2023-05-09T14:11:27.974Z,10.20
2023-05-09T14:13:55.950Z,9.68
2023-05-09T14:16:23.920Z,12.43
2023-05-09T14:18:53.180Z,10.45
2023-05-09T14:21:21.398Z,8.90
2023-05-09T14:23:54.021Z,11.10
2023-05-09T14:26:22.177Z,11.23
2023-05-09T14:28:50.058Z,11.02
2023-05-09T14:31:18.060Z,8.93
2023-05-09T14:33:46.049Z,11.95
2023-05-09T14:36:15.340Z,9.25
2023-05-09T14:38:43.776Z,13.48
2023-05-09T14:41:12.065Z,9.43
2023-05-09T14:43:40.318Z,9.02
2023-05-09T14:46:10.153Z,9.02
2023-05-09T14:48:38.083Z,8.82
2023-05-09T14:51:06.180Z,7.32
2023-05-09T14:53:39.737Z,8.38
2023-05-09T14:56:08.155Z,7.03
2023-05-09T14:58:36.376Z,7.65
2023-05-09T15:01:04.882Z,7.43
2023-05-09T15:03:32.840Z,7.20
2023-05-09T15:06:00.787Z,7.88
2023-05-09T15:08:28.659Z,6.72
2023-05-09T15:10:57.948Z,8.48
2023-05-09T15:13:25.920Z,6.45
2023-05-09T15:15:53.900Z,6.95
2023-05-09T15:18:23.644Z,8.02
2023-05-09T15:20:52.053Z,7.70
2023-05-09T15:23:19.910Z,10.98
2023-05-09T15:25:48.049Z,6.40
2023-05-09T15:28:17.564Z,7.43
2023-05-09T15:30:55.638Z,8.68
2023-05-09T15:33:23.464Z,7.05
2023-05-09T15:35:51.386Z,6.72
2023-05-09T15:38:19.616Z,7.45
2023-05-09T15:40:47.810Z,6.47
2023-05-09T15:43:17.164Z,7.75
2023-05-09T15:45:46.758Z,8.93
2023-05-09T15:48:17.661Z,7.40
2023-05-09T15:50:54.696Z,6.68
